sensor_id;sensor_type;location;lat;lon;timestamp;P1;durP1;ratioP1;P2;durP2;ratioP2
4096;SDS011;2062;50.694;7.246;2023-06-22T00:00:46;8.18;;;5.10;;
4096;SDS011;2062;50.694;7.246;2023-06-22T00:03:13;9.03;;;5.07;;
4096;SDS011;2062;50.694;7.246;2023-06-22T00:05:40;7.35;;;4.65;;
4096;SDS011;2062;50.694;7.246;2023-06-22T00:08:07;7.88;;;4.55;;
4096;SDS011;2062;50.694;7.246;2023-06-22T00:10:34;7.70;;;4.47;;
4096;SDS011;2062;50.694;7.246;2023-06-22T00:13:02;8.23;;;4.97;;
4096;SDS011;2062;50.694;7.246;2023-06-22T00:15:29;7.47;;;5.07;;
4096;SDS011;2062;50.694;7.246;2023-06-22T00:17:56;7.45;;;4.80;;
4096;SDS011;2062;50.694;7.246;2023-06-22T00:20:24;8.23;;;4.80;;
4096;SDS011;2062;50.694;7.246;2023-06-22T00:22:52;8.77;;;4.78;;
4096;SDS011;2062;50.694;7.246;2023-06-22T00:25:19;8.68;;;5.30;;
4096;SDS011;2062;50.694;7.246;2023-06-22T00:27:46;8.63;;;5.17;;
4096;SDS011;2062;50.694;7.246;2023-06-22T00:30:15;8.00;;;5.32;;
4096;SDS011;2062;50.694;7.246;2023-06-22T00:32:42;7.82;;;5.00;;
4096;SDS011;2062;50.694;7.246;2023-06-22T00:35:09;8.48;;;4.88;;
4096;SDS011;2062;50.694;7.246;2023-06-22T00:37:38;7.93;;;5.40;;
4096;SDS011;2062;50.694;7.246;2023-06-22T00:40:07;8.83;;;5.00;;
4096;SDS011;2062;50.694;7.246;2023-06-22T00:42:36;10.27;;;5.05;;
4096;SDS011;2062;50.694;7.246;2023-06-22T00:45:03;10.55;;;5.47;;
4096;SDS011;2062;50.694;7.246;2023-06-22T00:47:31;9.07;;;5.82;;
4096;SDS011;2062;50.694;7.246;2023-06-22T00:50:00;8.70;;;5.35;;
4096;SDS011;2062;50.694;7.246;2023-06-22T00:52:28;9.10;;;5.53;;
4096;SDS011;2062;50.694;7.246;2023-06-22T00:54:56;9.27;;;5.40;;
4096;SDS011;2062;50.694;7.246;2023-06-22T00:57:28;8.98;;;5.88;;
4096;SDS011;2062;50.694;7.246;2023-06-22T00:59:55;8.98;;;5.75;;
4096;SDS011;2062;50.694;7.246;2023-06-22T01:02:22;9.30;;;5.13;;
4096;SDS011;2062;50.694;7.246;2023-06-22T01:04:50;8.73;;;5.63;;
4096;SDS011;2062;50.694;7.246;2023-06-22T01:07:20;8.13;;;5.07;;
4096;SDS011;2062;50.694;7.246;2023-06-22T01:09:54;8.57;;;5.63;;
4096;SDS011;2062;50.694;7.246;2023-06-22T01:12:25;10.10;;;5.57;;
4096;SDS011;2062;50.694;7.246;2023-06-22T01:15:02;9.18;;;5.68;;
4096;SDS011;2062;50.694;7.246;2023-06-22T01:17:35;8.43;;;5.57;;
4096;SDS011;2062;50.694;7.246;2023-06-22T01:20:07;8.18;;;5.40;;
4096;SDS011;2062;50.694;7.246;2023-06-22T01:22:39;7.82;;;5.50;;
4096;SDS011;2062;50.694;7.246;2023-06-22T01:25:19;8.82;;;6.00;;
4096;SDS011;2062;50.694;7.246;2023-06-22T01:27:49;8.05;;;5.40;;
4096;SDS011;2062;50.694;7.246;2023-06-22T01:30:20;8.67;;;5.80;;
4096;SDS011;2062;50.694;7.246;2023-06-22T01:32:51;9.15;;;5.65;;
4096;SDS011;2062;50.694;7.246;2023-06-22T01:35:20;9.82;;;5.47;;
4096;SDS011;2062;50.694;7.246;2023-06-22T01:37:48;9.35;;;5.55;;
4096;SDS011;2062;50.694;7.246;2023-06-22T01:40:16;10.73;;;6.10;;
4096;SDS011;2062;50.694;7.246;2023-06-22T01:42:44;14.20;;;6.10;;
4096;SDS011;2062;50.694;7.246;2023-06-22T01:45:11;9.15;;;5.93;;
4096;SDS011;2062;50.694;7.246;2023-06-22T01:47:40;9.88;;;5.93;;
4096;SDS011;2062;50.694;7.246;2023-06-22T01:50:08;9.70;;;6.13;;
4096;SDS011;2062;50.694;7.246;2023-06-22T01:52:35;12.15;;;7.05;;
4096;SDS011;2062;50.694;7.246;2023-06-22T01:55:02;9.33;;;5.80;;
4096;SDS011;2062;50.694;7.246;2023-06-22T01:57:31;11.32;;;6.50;;
4096;SDS011;2062;50.694;7.246;2023-06-22T01:59:59;11.52;;;6.68;;
4096;SDS011;2062;50.694;7.246;2023-06-22T02:02:28;10.57;;;6.80;;
4096;SDS011;2062;50.694;7.246;2023-06-22T02:05:03;11.05;;;6.50;;
4096;SDS011;2062;50.694;7.246;2023-06-22T02:07:34;9.97;;;6.60;;
4096;SDS011;2062;50.694;7.246;2023-06-22T02:10:15;11.32;;;7.05;;
4096;SDS011;2062;50.694;7.246;2023-06-22T02:12:46;10.27;;;6.80;;
4096;SDS011;2062;50.694;7.246;2023-06-22T02:15:14;9.75;;;6.28;;
4096;SDS011;2062;50.694;7.246;2023-06-22T02:17:41;13.07;;;7.13;;
4096;SDS011;2062;50.694;7.246;2023-06-22T02:20:13;9.37;;;6.13;;
4096;SDS011;2062;50.694;7.246;2023-06-22T02:22:40;11.20;;;6.93;;
4096;SDS011;2062;50.694;7.246;2023-06-22T02:25:08;10.88;;;6.68;;
4096;SDS011;2062;50.694;7.246;2023-06-22T02:27:34;10.90;;;6.43;;
4096;SDS011;2062;50.694;7.246;2023-06-22T02:30:01;10.48;;;6.50;;
4096;SDS011;2062;50.694;7.246;2023-06-22T02:32:28;12.50;;;7.17;;
4096;SDS011;2062;50.694;7.246;2023-06-22T02:34:55;11.40;;;7.10;;
4096;SDS011;2062;50.694;7.246;2023-06-22T02:37:23;10.90;;;7.50;;
4096;SDS011;2062;50.694;7.246;2023-06-22T02:39:50;11.18;;;7.80;;
4096;SDS011;2062;50.694;7.246;2023-06-22T02:42:17;10.00;;;6.75;;
4096;SDS011;2062;50.694;7.246;2023-06-22T02:44:45;10.63;;;7.00;;
4096;SDS011;2062;50.694;7.246;2023-06-22T02:47:12;13.00;;;7.70;;
4096;SDS011;2062;50.694;7.246;2023-06-22T02:49:39;15.48;;;7.57;;
4096;SDS011;2062;50.694;7.246;2023-06-22T02:52:06;10.25;;;7.75;;
4096;SDS011;2062;50.694;7.246;2023-06-22T02:54:35;11.25;;;7.40;;
4096;SDS011;2062;50.694;7.246;2023-06-22T02:57:01;11.30;;;7.53;;
4096;SDS011;2062;50.694;7.246;2023-06-22T02:59:29;12.85;;;7.35;;
4096;SDS011;2062;50.694;7.246;2023-06-22T03:01:56;13.00;;;7.65;;
4096;SDS011;2062;50.694;7.246;2023-06-22T03:04:22;11.27;;;6.95;;
4096;SDS011;2062;50.694;7.246;2023-06-22T03:06:49;10.50;;;7.07;;
4096;SDS011;2062;50.694;7.246;2023-06-22T03:09:16;10.30;;;6.80;;
4096;SDS011;2062;50.694;7.246;2023-06-22T03:11:44;12.98;;;8.45;;
4096;SDS011;2062;50.694;7.246;2023-06-22T03:14:11;11.02;;;7.10;;
4096;SDS011;2062;50.694;7.246;2023-06-22T03:16:38;10.93;;;7.65;;
4096;SDS011;2062;50.694;7.246;2023-06-22T03:19:06;10.07;;;7.30;;
4096;SDS011;2062;50.694;7.246;2023-06-22T03:21:32;11.37;;;7.63;;
4096;SDS011;2062;50.694;7.246;2023-06-22T03:23:59;10.40;;;6.82;;
4096;SDS011;2062;50.694;7.246;2023-06-22T03:26:26;10.25;;;6.85;;
4096;SDS011;2062;50.694;7.246;2023-06-22T03:28:54;12.05;;;7.18;;
4096;SDS011;2062;50.694;7.246;2023-06-22T03:31:21;11.80;;;7.32;;
4096;SDS011;2062;50.694;7.246;2023-06-22T03:33:48;12.10;;;7.93;;
4096;SDS011;2062;50.694;7.246;2023-06-22T03:36:15;10.85;;;7.68;;
4096;SDS011;2062;50.694;7.246;2023-06-22T03:38:43;11.93;;;7.75;;
4096;SDS011;2062;50.694;7.246;2023-06-22T03:41:10;10.35;;;7.63;;
4096;SDS011;2062;50.694;7.246;2023-06-22T03:43:37;11.63;;;7.82;;
4096;SDS011;2062;50.694;7.246;2023-06-22T03:46:05;12.73;;;8.23;;
4096;SDS011;2062;50.694;7.246;2023-06-22T03:48:32;11.00;;;7.95;;
4096;SDS011;2062;50.694;7.246;2023-06-22T03:50:59;11.13;;;7.65;;
4096;SDS011;2062;50.694;7.246;2023-06-22T03:53:28;12.43;;;8.02;;
4096;SDS011;2062;50.694;7.246;2023-06-22T03:55:55;12.20;;;8.32;;
4096;SDS011;2062;50.694;7.246;2023-06-22T03:58:22;12.50;;;8.20;;
4096;SDS011;2062;50.694;7.246;2023-06-22T04:00:49;11.32;;;7.97;;
4096;SDS011;2062;50.694;7.246;2023-06-22T04:03:18;11.45;;;7.90;;
4096;SDS011;2062;50.694;7.246;2023-06-22T04:05:46;11.38;;;8.05;;
4096;SDS011;2062;50.694;7.246;2023-06-22T04:08:13;12.13;;;8.00;;
4096;SDS011;2062;50.694;7.246;2023-06-22T04:10:40;13.93;;;8.43;;
4096;SDS011;2062;50.694;7.246;2023-06-22T04:13:07;12.77;;;8.57;;
4096;SDS011;2062;50.694;7.246;2023-06-22T04:15:34;11.23;;;8.05;;
4096;SDS011;2062;50.694;7.246;2023-06-22T04:18:01;11.55;;;8.18;;
4096;SDS011;2062;50.694;7.246;2023-06-22T04:20:30;12.07;;;8.82;;
4096;SDS011;2062;50.694;7.246;2023-06-22T04:22:57;11.97;;;8.00;;
4096;SDS011;2062;50.694;7.246;2023-06-22T04:25:24;11.07;;;7.40;;
4096;SDS011;2062;50.694;7.246;2023-06-22T04:27:51;13.30;;;9.48;;
4096;SDS011;2062;50.694;7.246;2023-06-22T04:30:17;12.10;;;8.27;;
4096;SDS011;2062;50.694;7.246;2023-06-22T04:32:44;11.65;;;8.13;;
4096;SDS011;2062;50.694;7.246;2023-06-22T04:35:23;12.80;;;8.00;;
4096;SDS011;2062;50.694;7.246;2023-06-22T04:37:52;11.98;;;7.88;;
4096;SDS011;2062;50.694;7.246;2023-06-22T04:40:20;12.85;;;7.88;;
4096;SDS011;2062;50.694;7.246;2023-06-22T04:42:48;13.30;;;8.23;;
4096;SDS011;2062;50.694;7.246;2023-06-22T04:45:18;12.63;;;8.43;;
4096;SDS011;2062;50.694;7.246;2023-06-22T04:47:45;13.00;;;8.30;;
4096;SDS011;2062;50.694;7.246;2023-06-22T04:50:12;11.63;;;7.97;;
4096;SDS011;2062;50.694;7.246;2023-06-22T04:52:39;11.90;;;7.88;;
4096;SDS011;2062;50.694;7.246;2023-06-22T04:55:08;13.50;;;8.30;;
4096;SDS011;2062;50.694;7.246;2023-06-22T04:57:35;11.30;;;7.90;;
4096;SDS011;2062;50.694;7.246;2023-06-22T05:00:04;13.33;;;8.23;;
4096;SDS011;2062;50.694;7.246;2023-06-22T05:02:37;12.82;;;7.68;;
4096;SDS011;2062;50.694;7.246;2023-06-22T05:05:05;12.77;;;8.13;;
4096;SDS011;2062;50.694;7.246;2023-06-22T05:07:32;12.93;;;7.88;;
4096;SDS011;2062;50.694;7.246;2023-06-22T05:09:59;13.85;;;8.25;;
4096;SDS011;2062;50.694;7.246;2023-06-22T05:12:29;12.53;;;6.87;;
4096;SDS011;2062;50.694;7.246;2023-06-22T05:14:56;11.23;;;7.30;;
4096;SDS011;2062;50.694;7.246;2023-06-22T05:17:23;10.38;;;6.50;;
4096;SDS011;2062;50.694;7.246;2023-06-22T05:19:50;11.38;;;7.57;;
4096;SDS011;2062;50.694;7.246;2023-06-22T05:22:17;13.13;;;6.97;;
4096;SDS011;2062;50.694;7.246;2023-06-22T05:24:44;11.83;;;7.27;;
4096;SDS011;2062;50.694;7.246;2023-06-22T05:27:11;11.88;;;6.60;;
4096;SDS011;2062;50.694;7.246;2023-06-22T05:29:39;11.23;;;6.28;;
4096;SDS011;2062;50.694;7.246;2023-06-22T05:32:07;11.50;;;6.63;;
4096;SDS011;2062;50.694;7.246;2023-06-22T05:34:34;10.25;;;6.70;;
4096;SDS011;2062;50.694;7.246;2023-06-22T05:37:01;10.60;;;7.00;;
4096;SDS011;2062;50.694;7.246;2023-06-22T05:39:28;11.02;;;6.47;;
4096;SDS011;2062;50.694;7.246;2023-06-22T05:41:55;10.98;;;7.00;;
4096;SDS011;2062;50.694;7.246;2023-06-22T05:44:22;10.70;;;6.28;;
4096;SDS011;2062;50.694;7.246;2023-06-22T05:46:50;10.82;;;7.05;;
4096;SDS011;2062;50.694;7.246;2023-06-22T05:49:17;12.70;;;7.33;;
4096;SDS011;2062;50.694;7.246;2023-06-22T05:51:43;13.57;;;7.55;;
4096;SDS011;2062;50.694;7.246;2023-06-22T05:54:10;10.20;;;6.47;;
4096;SDS011;2062;50.694;7.246;2023-06-22T05:56:38;10.63;;;7.10;;
4096;SDS011;2062;50.694;7.246;2023-06-22T05:59:05;9.73;;;6.57;;
4096;SDS011;2062;50.694;7.246;2023-06-22T06:01:32;10.63;;;6.37;;
4096;SDS011;2062;50.694;7.246;2023-06-22T06:04:02;11.57;;;6.80;;
4096;SDS011;2062;50.694;7.246;2023-06-22T06:06:29;9.75;;;6.63;;
4096;SDS011;2062;50.694;7.246;2023-06-22T06:08:56;11.07;;;6.10;;
4096;SDS011;2062;50.694;7.246;2023-06-22T06:11:24;9.85;;;6.38;;
4096;SDS011;2062;50.694;7.246;2023-06-22T06:13:51;9.87;;;6.70;;
4096;SDS011;2062;50.694;7.246;2023-06-22T06:16:18;12.43;;;6.60;;
4096;SDS011;2062;50.694;7.246;2023-06-22T06:18:45;11.73;;;7.00;;
4096;SDS011;2062;50.694;7.246;2023-06-22T06:21:14;10.48;;;6.95;;
4096;SDS011;2062;50.694;7.246;2023-06-22T06:23:41;10.45;;;6.32;;
4096;SDS011;2062;50.694;7.246;2023-06-22T06:26:08;10.03;;;6.90;;
4096;SDS011;2062;50.694;7.246;2023-06-22T06:28:35;10.55;;;7.20;;
4096;SDS011;2062;50.694;7.246;2023-06-22T06:31:02;10.05;;;6.93;;
4096;SDS011;2062;50.694;7.246;2023-06-22T06:33:32;10.75;;;6.93;;
4096;SDS011;2062;50.694;7.246;2023-06-22T06:35:58;11.52;;;7.15;;
4096;SDS011;2062;50.694;7.246;2023-06-22T06:38:29;12.23;;;6.60;;
4096;SDS011;2062;50.694;7.246;2023-06-22T06:40:56;13.18;;;6.90;;
4096;SDS011;2062;50.694;7.246;2023-06-22T06:43:24;10.40;;;6.90;;
4096;SDS011;2062;50.694;7.246;2023-06-22T06:45:51;12.35;;;7.03;;
4096;SDS011;2062;50.694;7.246;2023-06-22T06:48:17;10.63;;;7.38;;
4096;SDS011;2062;50.694;7.246;2023-06-22T06:50:44;11.30;;;7.23;;
4096;SDS011;2062;50.694;7.246;2023-06-22T06:53:11;10.57;;;6.90;;
4096;SDS011;2062;50.694;7.246;2023-06-22T06:55:39;12.30;;;7.20;;
4096;SDS011;2062;50.694;7.246;2023-06-22T06:58:06;12.73;;;7.70;;
4096;SDS011;2062;50.694;7.246;2023-06-22T07:00:34;11.95;;;7.75;;
4096;SDS011;2062;50.694;7.246;2023-06-22T07:03:01;12.80;;;7.70;;
4096;SDS011;2062;50.694;7.246;2023-06-22T07:05:28;12.25;;;7.38;;
4096;SDS011;2062;50.694;7.246;2023-06-22T07:07:55;12.40;;;7.40;;
4096;SDS011;2062;50.694;7.246;2023-06-22T07:10:22;10.40;;;7.07;;
4096;SDS011;2062;50.694;7.246;2023-06-22T07:12:50;10.85;;;7.63;;
4096;SDS011;2062;50.694;7.246;2023-06-22T07:15:17;9.60;;;6.70;;
4096;SDS011;2062;50.694;7.246;2023-06-22T07:17:44;12.07;;;7.45;;
4096;SDS011;2062;50.694;7.246;2023-06-22T07:20:11;10.38;;;7.20;;
4096;SDS011;2062;50.694;7.246;2023-06-22T07:22:38;11.05;;;6.72;;
4096;SDS011;2062;50.694;7.246;2023-06-22T07:25:06;12.30;;;7.78;;
4096;SDS011;2062;50.694;7.246;2023-06-22T07:27:35;12.70;;;7.40;;
4096;SDS011;2062;50.694;7.246;2023-06-22T07:30:05;11.93;;;7.10;;
4096;SDS011;2062;50.694;7.246;2023-06-22T07:32:33;12.73;;;7.97;;
4096;SDS011;2062;50.694;7.246;2023-06-22T07:34:59;12.15;;;7.30;;
4096;SDS011;2062;50.694;7.246;2023-06-22T07:37:27;11.80;;;8.43;;
4096;SDS011;2062;50.694;7.246;2023-06-22T07:39:54;12.70;;;7.57;;
4096;SDS011;2062;50.694;7.246;2023-06-22T07:42:23;13.43;;;7.57;;
4096;SDS011;2062;50.694;7.246;2023-06-22T07:44:50;13.50;;;7.55;;
4096;SDS011;2062;50.694;7.246;2023-06-22T07:47:18;12.32;;;7.40;;
4096;SDS011;2062;50.694;7.246;2023-06-22T07:49:45;12.40;;;7.82;;
4096;SDS011;2062;50.694;7.246;2023-06-22T07:52:12;13.93;;;7.70;;
4096;SDS011;2062;50.694;7.246;2023-06-22T07:54:39;11.93;;;7.95;;
4096;SDS011;2062;50.694;7.246;2023-06-22T07:57:06;10.95;;;7.57;;
4096;SDS011;2062;50.694;7.246;2023-06-22T07:59:33;12.70;;;7.57;;
4096;SDS011;2062;50.694;7.246;2023-06-22T08:01:59;12.63;;;7.30;;
4096;SDS011;2062;50.694;7.246;2023-06-22T08:04:29;12.90;;;7.27;;
4096;SDS011;2062;50.694;7.246;2023-06-22T08:06:59;11.25;;;7.20;;
4096;SDS011;2062;50.694;7.246;2023-06-22T08:09:27;11.73;;;7.45;;
4096;SDS011;2062;50.694;7.246;2023-06-22T08:11:54;10.07;;;7.18;;
4096;SDS011;2062;50.694;7.246;2023-06-22T08:14:21;12.38;;;8.57;;
4096;SDS011;2062;50.694;7.246;2023-06-22T08:16:48;12.77;;;7.63;;
4096;SDS011;2062;50.694;7.246;2023-06-22T08:19:15;11.82;;;8.23;;
4096;SDS011;2062;50.694;7.246;2023-06-22T08:21:44;11.45;;;8.18;;
4096;SDS011;2062;50.694;7.246;2023-06-22T08:24:11;11.80;;;8.10;;
4096;SDS011;2062;50.694;7.246;2023-06-22T08:26:37;11.35;;;8.00;;
4096;SDS011;2062;50.694;7.246;2023-06-22T08:29:04;12.03;;;8.00;;
4096;SDS011;2062;50.694;7.246;2023-06-22T08:31:31;11.30;;;8.30;;
4096;SDS011;2062;50.694;7.246;2023-06-22T08:33:59;13.18;;;8.25;;
4096;SDS011;2062;50.694;7.246;2023-06-22T08:36:26;12.35;;;7.68;;
4096;SDS011;2062;50.694;7.246;2023-06-22T08:39:01;12.60;;;7.70;;
4096;SDS011;2062;50.694;7.246;2023-06-22T08:41:28;10.30;;;7.33;;
4096;SDS011;2062;50.694;7.246;2023-06-22T08:43:55;12.57;;;7.55;;
4096;SDS011;2062;50.694;7.246;2023-06-22T08:46:22;10.65;;;7.90;;
4096;SDS011;2062;50.694;7.246;2023-06-22T08:48:55;13.25;;;7.78;;
4096;SDS011;2062;50.694;7.246;2023-06-22T08:51:22;10.85;;;7.55;;
4096;SDS011;2062;50.694;7.246;2023-06-22T08:53:49;11.30;;;7.67;;
4096;SDS011;2062;50.694;7.246;2023-06-22T08:56:18;14.88;;;8.02;;
4096;SDS011;2062;50.694;7.246;2023-06-22T08:58:44;10.15;;;6.88;;
4096;SDS011;2062;50.694;7.246;2023-06-22T09:01:11;11.65;;;7.55;;
4096;SDS011;2062;50.694;7.246;2023-06-22T09:03:40;12.20;;;7.43;;
4096;SDS011;2062;50.694;7.246;2023-06-22T09:06:07;10.37;;;7.10;;
4096;SDS011;2062;50.694;7.246;2023-06-22T09:08:35;10.00;;;7.38;;
4096;SDS011;2062;50.694;7.246;2023-06-22T09:11:02;10.80;;;7.38;;
4096;SDS011;2062;50.694;7.246;2023-06-22T09:13:31;10.07;;;7.18;;
4096;SDS011;2062;50.694;7.246;2023-06-22T09:15:59;10.00;;;7.30;;
4096;SDS011;2062;50.694;7.246;2023-06-22T09:18:26;10.80;;;7.70;;
4096;SDS011;2062;50.694;7.246;2023-06-22T09:20:53;14.10;;;7.80;;
4096;SDS011;2062;50.694;7.246;2023-06-22T09:23:20;10.48;;;7.30;;
4096;SDS011;2062;50.694;7.246;2023-06-22T09:25:47;11.77;;;7.15;;
4096;SDS011;2062;50.694;7.246;2023-06-22T09:28:14;12.13;;;7.07;;
4096;SDS011;2062;50.694;7.246;2023-06-22T09:30:43;10.47;;;7.53;;
4096;SDS011;2062;50.694;7.246;2023-06-22T09:33:10;11.15;;;7.35;;
4096;SDS011;2062;50.694;7.246;2023-06-22T09:35:37;10.93;;;7.45;;
4096;SDS011;2062;50.694;7.246;2023-06-22T09:38:04;11.18;;;7.40;;
4096;SDS011;2062;50.694;7.246;2023-06-22T09:40:31;10.30;;;7.80;;
4096;SDS011;2062;50.694;7.246;2023-06-22T09:43:03;10.23;;;7.63;;
4096;SDS011;2062;50.694;7.246;2023-06-22T09:45:30;13.57;;;7.47;;
4096;SDS011;2062;50.694;7.246;2023-06-22T09:47:58;12.18;;;8.50;;
4096;SDS011;2062;50.694;7.246;2023-06-22T09:50:25;11.00;;;7.88;;
4096;SDS011;2062;50.694;7.246;2023-06-22T09:52:51;11.20;;;7.47;;
4096;SDS011;2062;50.694;7.246;2023-06-22T09:55:20;11.93;;;8.10;;
4096;SDS011;2062;50.694;7.246;2023-06-22T09:57:47;11.48;;;7.60;;
4096;SDS011;2062;50.694;7.246;2023-06-22T10:00:14;9.82;;;7.90;;
4096;SDS011;2062;50.694;7.246;2023-06-22T10:02:44;10.48;;;7.75;;
4096;SDS011;2062;50.694;7.246;2023-06-22T10:05:12;11.98;;;7.68;;
4096;SDS011;2062;50.694;7.246;2023-06-22T10:07:39;11.17;;;7.60;;
4096;SDS011;2062;50.694;7.246;2023-06-22T10:10:08;11.63;;;8.20;;
4096;SDS011;2062;50.694;7.246;2023-06-22T10:12:35;13.10;;;8.07;;
4096;SDS011;2062;50.694;7.246;2023-06-22T10:15:02;11.10;;;7.72;;
4096;SDS011;2062;50.694;7.246;2023-06-22T10:17:29;11.07;;;8.07;;
4096;SDS011;2062;50.694;7.246;2023-06-22T10:19:56;10.93;;;8.23;;
4096;SDS011;2062;50.694;7.246;2023-06-22T10:22:25;11.52;;;7.95;;
4096;SDS011;2062;50.694;7.246;2023-06-22T10:24:52;10.23;;;8.00;;
4096;SDS011;2062;50.694;7.246;2023-06-22T10:27:19;10.27;;;7.93;;
4096;SDS011;2062;50.694;7.246;2023-06-22T10:29:45;10.55;;;8.10;;
4096;SDS011;2062;50.694;7.246;2023-06-22T10:32:12;10.93;;;7.90;;
4096;SDS011;2062;50.694;7.246;2023-06-22T10:34:39;11.43;;;7.75;;
4096;SDS011;2062;50.694;7.246;2023-06-22T10:37:06;15.45;;;8.50;;
4096;SDS011;2062;50.694;7.246;2023-06-22T10:39:34;13.48;;;8.25;;
4096;SDS011;2062;50.694;7.246;2023-06-22T10:42:01;10.55;;;8.27;;
4096;SDS011;2062;50.694;7.246;2023-06-22T10:44:27;12.33;;;8.67;;
4096;SDS011;2062;50.694;7.246;2023-06-22T10:46:54;11.85;;;8.23;;
4096;SDS011;2062;50.694;7.246;2023-06-22T10:49:21;13.27;;;8.48;;
4096;SDS011;2062;50.694;7.246;2023-06-22T10:51:48;13.93;;;8.50;;
4096;SDS011;2062;50.694;7.246;2023-06-22T10:54:14;19.80;;;9.23;;
4096;SDS011;2062;50.694;7.246;2023-06-22T10:56:44;12.67;;;8.47;;
4096;SDS011;2062;50.694;7.246;2023-06-22T10:59:11;16.00;;;9.18;;
4096;SDS011;2062;50.694;7.246;2023-06-22T11:01:38;13.93;;;8.80;;
4096;SDS011;2062;50.694;7.246;2023-06-22T11:04:05;14.88;;;8.82;;
4096;SDS011;2062;50.694;7.246;2023-06-22T11:06:32;16.85;;;9.57;;
4096;SDS011;2062;50.694;7.246;2023-06-22T11:08:58;15.40;;;8.83;;
4096;SDS011;2062;50.694;7.246;2023-06-22T11:11:25;13.40;;;8.90;;
4096;SDS011;2062;50.694;7.246;2023-06-22T11:13:54;13.48;;;9.35;;
4096;SDS011;2062;50.694;7.246;2023-06-22T11:16:21;12.75;;;9.00;;
4096;SDS011;2062;50.694;7.246;2023-06-22T11:18:47;12.63;;;8.77;;
4096;SDS011;2062;50.694;7.246;2023-06-22T11:21:14;12.87;;;9.00;;
4096;SDS011;2062;50.694;7.246;2023-06-22T11:23:41;13.18;;;9.00;;
4096;SDS011;2062;50.694;7.246;2023-06-22T11:26:08;14.07;;;9.35;;
4096;SDS011;2062;50.694;7.246;2023-06-22T11:28:35;13.60;;;9.50;;
4096;SDS011;2062;50.694;7.246;2023-06-22T11:31:03;13.00;;;9.10;;
4096;SDS011;2062;50.694;7.246;2023-06-22T11:33:32;13.30;;;8.53;;
4096;SDS011;2062;50.694;7.246;2023-06-22T11:35:58;13.63;;;9.52;;
4096;SDS011;2062;50.694;7.246;2023-06-22T11:38:26;14.15;;;9.35;;
4096;SDS011;2062;50.694;7.246;2023-06-22T11:40:52;14.43;;;9.25;;
4096;SDS011;2062;50.694;7.246;2023-06-22T11:43:19;11.60;;;8.20;;
4096;SDS011;2062;50.694;7.246;2023-06-22T11:45:46;13.93;;;8.57;;
4096;SDS011;2062;50.694;7.246;2023-06-22T11:48:15;11.70;;;8.57;;
4096;SDS011;2062;50.694;7.246;2023-06-22T11:50:42;13.35;;;8.75;;
4096;SDS011;2062;50.694;7.246;2023-06-22T11:53:09;13.02;;;8.82;;
4096;SDS011;2062;50.694;7.246;2023-06-22T11:55:36;13.40;;;8.90;;
4096;SDS011;2062;50.694;7.246;2023-06-22T11:58:03;12.80;;;8.90;;
4096;SDS011;2062;50.694;7.246;2023-06-22T12:00:31;13.73;;;9.40;;
4096;SDS011;2062;50.694;7.246;2023-06-22T12:02:58;13.48;;;9.65;;
4096;SDS011;2062;50.694;7.246;2023-06-22T12:05:26;15.75;;;9.63;;
4096;SDS011;2062;50.694;7.246;2023-06-22T12:07:53;14.82;;;9.55;;
4096;SDS011;2062;50.694;7.246;2023-06-22T12:10:20;15.50;;;10.37;;
4096;SDS011;2062;50.694;7.246;2023-06-22T12:12:47;13.70;;;10.32;;
4096;SDS011;2062;50.694;7.246;2023-06-22T12:15:14;14.98;;;10.02;;
4096;SDS011;2062;50.694;7.246;2023-06-22T12:17:41;12.32;;;9.43;;
4096;SDS011;2062;50.694;7.246;2023-06-22T12:20:08;12.32;;;8.27;;
4096;SDS011;2062;50.694;7.246;2023-06-22T12:22:36;11.60;;;7.20;;
4096;SDS011;2062;50.694;7.246;2023-06-22T12:25:04;9.65;;;6.97;;
4096;SDS011;2062;50.694;7.246;2023-06-22T12:27:31;10.88;;;7.15;;
4096;SDS011;2062;50.694;7.246;2023-06-22T12:29:58;11.43;;;7.38;;
4096;SDS011;2062;50.694;7.246;2023-06-22T12:32:24;11.25;;;7.88;;
4096;SDS011;2062;50.694;7.246;2023-06-22T12:34:51;12.50;;;7.90;;
4096;SDS011;2062;50.694;7.246;2023-06-22T12:37:18;11.90;;;8.65;;
4096;SDS011;2062;50.694;7.246;2023-06-22T12:39:46;11.45;;;7.97;;
4096;SDS011;2062;50.694;7.246;2023-06-22T12:42:13;13.15;;;8.63;;
4096;SDS011;2062;50.694;7.246;2023-06-22T12:44:41;12.52;;;8.57;;
4096;SDS011;2062;50.694;7.246;2023-06-22T12:47:08;12.97;;;8.97;;
4096;SDS011;2062;50.694;7.246;2023-06-22T12:49:35;13.82;;;9.63;;
4096;SDS011;2062;50.694;7.246;2023-06-22T12:52:02;14.02;;;9.57;;
4096;SDS011;2062;50.694;7.246;2023-06-22T12:54:29;12.90;;;9.60;;
4096;SDS011;2062;50.694;7.246;2023-06-22T12:56:57;13.05;;;9.85;;
4096;SDS011;2062;50.694;7.246;2023-06-22T12:59:24;13.33;;;8.40;;
4096;SDS011;2062;50.694;7.246;2023-06-22T13:01:51;12.82;;;9.27;;
4096;SDS011;2062;50.694;7.246;2023-06-22T13:04:18;12.65;;;9.18;;
4096;SDS011;2062;50.694;7.246;2023-06-22T13:06:44;13.25;;;8.32;;
4096;SDS011;2062;50.694;7.246;2023-06-22T13:09:13;12.85;;;8.35;;
4096;SDS011;2062;50.694;7.246;2023-06-22T13:11:40;14.40;;;8.93;;
4096;SDS011;2062;50.694;7.246;2023-06-22T13:14:08;13.88;;;8.95;;
4096;SDS011;2062;50.694;7.246;2023-06-22T13:16:35;12.65;;;8.90;;
4096;SDS011;2062;50.694;7.246;2023-06-22T13:19:02;12.98;;;8.65;;
4096;SDS011;2062;50.694;7.246;2023-06-22T13:21:29;12.82;;;8.63;;
4096;SDS011;2062;50.694;7.246;2023-06-22T13:23:57;12.10;;;8.57;;
4096;SDS011;2062;50.694;7.246;2023-06-22T13:26:24;11.10;;;7.57;;
4096;SDS011;2062;50.694;7.246;2023-06-22T13:28:52;10.95;;;7.85;;
4096;SDS011;2062;50.694;7.246;2023-06-22T13:31:20;10.90;;;7.32;;
4096;SDS011;2062;50.694;7.246;2023-06-22T13:33:47;9.25;;;7.20;;
4096;SDS011;2062;50.694;7.246;2023-06-22T13:36:17;10.17;;;7.43;;
4096;SDS011;2062;50.694;7.246;2023-06-22T13:38:44;9.90;;;7.03;;
4096;SDS011;2062;50.694;7.246;2023-06-22T13:41:11;9.55;;;7.20;;
4096;SDS011;2062;50.694;7.246;2023-06-22T13:43:38;11.27;;;7.40;;
4096;SDS011;2062;50.694;7.246;2023-06-22T13:46:04;10.48;;;6.93;;
4096;SDS011;2062;50.694;7.246;2023-06-22T13:48:32;9.50;;;6.77;;
4096;SDS011;2062;50.694;7.246;2023-06-22T13:50:59;9.40;;;6.82;;
4096;SDS011;2062;50.694;7.246;2023-06-22T13:53:26;11.02;;;7.32;;
4096;SDS011;2062;50.694;7.246;2023-06-22T13:55:53;9.57;;;6.60;;
4096;SDS011;2062;50.694;7.246;2023-06-22T13:58:19;10.18;;;7.22;;
4096;SDS011;2062;50.694;7.246;2023-06-22T14:00:46;9.13;;;6.27;;
4096;SDS011;2062;50.694;7.246;2023-06-22T14:03:14;8.60;;;5.82;;
4096;SDS011;2062;50.694;7.246;2023-06-22T14:05:43;9.35;;;5.80;;
4096;SDS011;2062;50.694;7.246;2023-06-22T14:08:10;8.18;;;5.30;;
4096;SDS011;2062;50.694;7.246;2023-06-22T14:10:37;8.10;;;5.43;;
4096;SDS011;2062;50.694;7.246;2023-06-22T14:13:04;9.03;;;4.83;;
4096;SDS011;2062;50.694;7.246;2023-06-22T14:15:31;8.55;;;5.65;;
4096;SDS011;2062;50.694;7.246;2023-06-22T14:17:58;8.82;;;5.57;;
4096;SDS011;2062;50.694;7.246;2023-06-22T14:20:25;8.20;;;5.10;;
4096;SDS011;2062;50.694;7.246;2023-06-22T14:22:53;8.43;;;5.20;;
4096;SDS011;2062;50.694;7.246;2023-06-22T14:25:20;7.83;;;5.37;;
4096;SDS011;2062;50.694;7.246;2023-06-22T14:27:47;8.25;;;5.13;;
4096;SDS011;2062;50.694;7.246;2023-06-22T14:30:14;10.05;;;6.20;;
4096;SDS011;2062;50.694;7.246;2023-06-22T14:32:42;11.38;;;5.63;;
4096;SDS011;2062;50.694;7.246;2023-06-22T14:35:10;10.48;;;6.25;;
4096;SDS011;2062;50.694;7.246;2023-06-22T14:37:37;9.00;;;6.23;;
4096;SDS011;2062;50.694;7.246;2023-06-22T14:40:05;11.85;;;6.28;;
4096;SDS011;2062;50.694;7.246;2023-06-22T14:42:33;10.82;;;5.90;;
4096;SDS011;2062;50.694;7.246;2023-06-22T14:44:59;9.93;;;5.68;;
4096;SDS011;2062;50.694;7.246;2023-06-22T14:47:26;11.88;;;5.60;;
4096;SDS011;2062;50.694;7.246;2023-06-22T14:49:53;9.17;;;5.77;;
4096;SDS011;2062;50.694;7.246;2023-06-22T14:52:21;13.15;;;6.25;;
4096;SDS011;2062;50.694;7.246;2023-06-22T14:54:47;10.15;;;5.50;;
4096;SDS011;2062;50.694;7.246;2023-06-22T14:57:17;12.23;;;6.05;;
4096;SDS011;2062;50.694;7.246;2023-06-22T14:59:45;13.63;;;6.60;;
4096;SDS011;2062;50.694;7.246;2023-06-22T15:02:12;12.30;;;6.23;;
4096;SDS011;2062;50.694;7.246;2023-06-22T15:04:38;12.65;;;6.47;;
4096;SDS011;2062;50.694;7.246;2023-06-22T15:07:05;7.68;;;4.22;;